createdAt,value
2018-11-01T00:01:23.364Z,10.29
2018-11-01T00:03:52.206Z,10.28
2018-11-01T00:06:20.910Z,10.28
2018-11-01T00:08:49.550Z,10.26
2018-11-01T00:11:18.298Z,10.25
2018-11-01T00:13:47.179Z,10.23
2018-11-01T00:16:33.760Z,10.22
2018-11-01T00:19:02.973Z,10.20
2018-11-01T00:21:33.514Z,10.18
2018-11-01T00:24:02.403Z,10.16
2018-11-01T00:26:31.320Z,10.16
2018-11-01T00:29:00.199Z,10.15
2018-11-01T00:31:29.027Z,10.14
2018-11-01T00:33:57.924Z,10.13
2018-11-01T00:36:26.708Z,10.11
2018-11-01T00:38:55.468Z,10.11
2018-11-01T00:41:24.768Z,10.10
2018-11-01T00:43:53.631Z,10.09
2018-11-01T00:46:22.475Z,10.08
2018-11-01T00:48:51.264Z,10.08
2018-11-01T00:51:20.722Z,10.07
2018-11-01T00:53:49.531Z,10.06
2018-11-01T00:56:18.299Z,10.05
2018-11-01T00:58:47.068Z,10.04
2018-11-01T01:01:15.837Z,10.04
2018-11-01T01:03:44.631Z,10.03
2018-11-01T01:06:13.293Z,10.03
2018-11-01T01:08:42.677Z,10.01
2018-11-01T01:11:11.431Z,10.01
2018-11-01T01:13:41.002Z,10.01
2018-11-01T01:16:10.416Z,10.00
2018-11-01T01:18:39.727Z,9.99
2018-11-01T01:21:09.374Z,10.00
2018-11-01T01:23:38.233Z,10.00
2018-11-01T01:26:07.298Z,9.99
2018-11-01T01:28:37.175Z,9.99
2018-11-01T01:31:06.030Z,9.99
2018-11-01T01:33:35.635Z,10.00
2018-11-01T01:36:04.895Z,9.99
2018-11-01T01:38:33.735Z,10.00
2018-11-01T01:41:03.843Z,10.00
2018-11-01T01:43:32.795Z,9.99
2018-11-01T01:46:01.666Z,9.99
2018-11-01T01:48:31.194Z,9.99
2018-11-01T01:50:59.976Z,9.99
2018-11-01T01:53:28.684Z,10.01
2018-11-01T01:55:57.639Z,10.01
2018-11-01T01:58:26.455Z,10.03
2018-11-01T02:00:55.220Z,10.03
2018-11-01T02:03:23.941Z,10.05
2018-11-01T02:05:52.728Z,10.06
2018-11-01T02:08:22.499Z,10.07
2018-11-01T02:10:51.461Z,10.08
2018-11-01T02:13:20.338Z,10.08
2018-11-01T02:15:50.475Z,10.09
2018-11-01T02:18:19.367Z,10.10
2018-11-01T02:20:48.303Z,10.13
2018-11-01T02:23:17.680Z,10.11
2018-11-01T02:25:46.615Z,10.12
2018-11-01T02:28:17.033Z,10.11
2018-11-01T02:30:46.008Z,10.10
2018-11-01T02:33:14.858Z,10.11
2018-11-01T02:35:43.800Z,10.09
2018-11-01T02:38:12.816Z,10.07
2018-11-01T02:40:42.256Z,10.06
2018-11-01T02:43:11.206Z,10.01
2018-11-01T02:45:40.505Z,9.99
2018-11-01T02:48:09.280Z,9.95
2018-11-01T02:50:38.104Z,9.92
2018-11-01T02:53:06.966Z,9.90
2018-11-01T02:55:35.784Z,9.88
2018-11-01T02:58:05.076Z,9.86
2018-11-01T03:00:34.554Z,9.85
2018-11-01T03:03:03.380Z,9.85
2018-11-01T03:05:32.236Z,9.84
2018-11-01T03:08:01.663Z,9.84
2018-11-01T03:10:30.486Z,9.85
2018-11-01T03:12:59.447Z,9.85
2018-11-01T03:15:29.139Z,9.86
2018-11-01T03:17:58.980Z,9.87
2018-11-01T03:20:27.776Z,9.87
2018-11-01T03:22:57.857Z,9.88
2018-11-01T03:25:26.950Z,9.89
2018-11-01T03:27:55.725Z,9.90
2018-11-01T03:30:24.645Z,9.91
2018-11-01T03:32:53.918Z,9.91
2018-11-01T03:35:22.637Z,9.91
2018-11-01T03:37:51.395Z,9.91
2018-11-01T03:40:20.692Z,9.91
2018-11-01T03:42:49.578Z,9.92
2018-11-01T03:45:18.259Z,9.93
2018-11-01T03:47:46.948Z,9.92
2018-11-01T03:50:16.957Z,9.92
2018-11-01T03:52:45.630Z,9.91
2018-11-01T03:55:15.115Z,9.93
2018-11-01T03:57:44.320Z,9.92
2018-11-01T04:00:15.291Z,9.92
2018-11-01T04:02:45.307Z,9.89
2018-11-01T04:05:14.052Z,9.86
2018-11-01T04:07:42.997Z,9.83
2018-11-01T04:10:12.924Z,9.81
2018-11-01T04:12:41.565Z,9.76
2018-11-01T04:15:13.407Z,9.73
2018-11-01T04:17:42.440Z,9.72
2018-11-01T04:20:12.352Z,9.70
2018-11-01T04:22:42.192Z,9.68
2018-11-01T04:25:12.031Z,9.67
2018-11-01T04:27:40.888Z,9.65
2018-11-01T04:30:10.370Z,9.63
2018-11-01T04:32:39.176Z,9.59
2018-11-01T04:35:08.461Z,9.58
2018-11-01T04:37:37.187Z,9.53
2018-11-01T04:40:06.800Z,9.50
2018-11-01T04:42:35.643Z,9.47
2018-11-01T04:45:04.373Z,9.43
2018-11-01T04:47:33.112Z,9.41
2018-11-01T04:50:02.982Z,9.36
2018-11-01T04:52:32.200Z,9.35
2018-11-01T04:55:01.023Z,9.31
2018-11-01T04:57:29.755Z,9.28
2018-11-01T04:59:59.065Z,9.25
2018-11-01T05:02:28.413Z,9.21
2018-11-01T05:04:58.117Z,9.19
2018-11-01T05:07:26.911Z,9.18
2018-11-01T05:09:55.564Z,9.16
2018-11-01T05:12:24.656Z,9.16
2018-11-01T05:14:53.419Z,9.15
2018-11-01T05:17:22.309Z,9.13
2018-11-01T05:19:51.672Z,9.13
2018-11-01T05:22:20.319Z,9.12
2018-11-01T05:24:49.669Z,9.12
2018-11-01T05:27:18.852Z,9.13
2018-11-01T05:29:47.739Z,9.15
2018-11-01T05:32:16.636Z,9.18
2018-11-01T05:34:45.459Z,9.21
2018-11-01T05:37:15.701Z,9.24
2018-11-01T05:39:45.050Z,9.26
2018-11-01T05:42:14.507Z,9.29
2018-11-01T05:44:43.947Z,9.31
2018-11-01T05:47:12.602Z,9.33
2018-11-01T05:49:41.433Z,9.35
2018-11-01T05:52:10.076Z,9.36
2018-11-01T05:54:38.795Z,9.38
2018-11-01T05:57:07.681Z,9.39
2018-11-01T05:59:36.475Z,9.40
2018-11-01T06:02:09.364Z,9.40
2018-11-01T06:04:38.012Z,9.40
2018-11-01T06:07:06.658Z,9.40
2018-11-01T06:09:35.407Z,9.40
2018-11-01T06:12:04.228Z,9.39
2018-11-01T06:14:33.044Z,9.39
2018-11-01T06:17:01.733Z,9.40
2018-11-01T06:19:30.515Z,9.41
2018-11-01T06:21:59.412Z,9.43
2018-11-01T06:24:28.090Z,9.45
2018-11-01T06:26:56.953Z,9.45
2018-11-01T06:29:27.243Z,9.45
2018-11-01T06:31:56.436Z,9.42
2018-11-01T06:34:29.609Z,9.37
2018-11-01T06:36:58.339Z,9.33
2018-11-01T06:39:27.116Z,9.30
2018-11-01T06:41:55.826Z,9.25
2018-11-01T06:44:24.649Z,9.20
2018-11-01T06:46:54.564Z,9.16
2018-11-01T06:49:23.445Z,9.14
2018-11-01T06:51:52.224Z,9.12
2018-11-01T06:54:21.069Z,9.09
2018-11-01T06:56:49.952Z,9.07
2018-11-01T06:59:19.194Z,9.05
2018-11-01T07:01:48.271Z,9.04
2018-11-01T07:04:17.155Z,9.03
2018-11-01T07:06:45.988Z,9.05
2018-11-01T07:09:16.369Z,9.07
2018-11-01T07:11:45.353Z,9.08
2018-11-01T07:14:14.050Z,9.08
2018-11-01T07:16:42.755Z,9.10
2018-11-01T07:19:11.484Z,9.09
2018-11-01T07:21:40.322Z,9.10
2018-11-01T07:24:09.798Z,9.11
2018-11-01T07:26:38.560Z,9.12
2018-11-01T07:29:07.297Z,9.12
2018-11-01T07:31:35.981Z,9.12
2018-11-01T07:34:04.674Z,9.11
2018-11-01T07:36:33.523Z,9.09
2018-11-01T07:39:02.301Z,9.09
2018-11-01T07:41:31.044Z,9.08
2018-11-01T07:43:59.890Z,9.08
2018-11-01T07:46:28.631Z,9.06
2018-11-01T07:48:57.312Z,9.05
2018-11-01T07:51:26.049Z,9.06
2018-11-01T07:53:54.748Z,9.05
2018-11-01T07:56:23.431Z,9.06
2018-11-01T07:58:52.112Z,9.05
2018-11-01T08:01:20.817Z,9.05
2018-11-01T08:03:49.528Z,9.09
2018-11-01T08:06:18.218Z,9.12
2018-11-01T08:08:46.991Z,9.18
2018-11-01T08:11:15.666Z,9.20
2018-11-01T08:13:44.419Z,9.24
2018-11-01T08:16:13.112Z,9.26
2018-11-01T08:18:41.808Z,9.28
2018-11-01T08:21:10.579Z,9.32
2018-11-01T08:23:39.189Z,9.35
2018-11-01T08:26:07.894Z,9.37
2018-11-01T08:28:36.571Z,9.40
2018-11-01T08:31:05.450Z,9.44
2018-11-01T08:33:34.148Z,9.47
2018-11-01T08:36:02.817Z,9.49
2018-11-01T08:38:31.516Z,9.53
2018-11-01T08:41:00.327Z,9.56
2018-11-01T08:43:28.988Z,9.61
2018-11-01T08:45:57.703Z,9.65
2018-11-01T08:48:26.384Z,9.71
2018-11-01T08:50:55.065Z,9.74
2018-11-01T08:53:23.751Z,9.78
2018-11-01T08:55:52.553Z,9.79
2018-11-01T08:58:21.208Z,9.81
2018-11-01T09:00:49.904Z,9.85
2018-11-01T09:03:18.601Z,9.84
2018-11-01T09:05:47.325Z,9.83
2018-11-01T09:08:16.016Z,9.81
2018-11-01T09:10:44.707Z,9.81
2018-11-01T09:13:13.435Z,9.80
2018-11-01T09:15:42.071Z,9.81
2018-11-01T09:18:10.732Z,9.83
2018-11-01T09:20:39.447Z,9.85
2018-11-01T09:23:08.190Z,9.88
2018-11-01T09:25:36.923Z,9.88
2018-11-01T09:28:05.794Z,9.87
2018-11-01T09:30:34.461Z,9.85
2018-11-01T09:33:03.224Z,9.84
2018-11-01T09:35:31.981Z,9.81
2018-11-01T09:38:01.222Z,9.81
2018-11-01T09:40:29.933Z,9.83
2018-11-01T09:42:58.599Z,9.87
2018-11-01T09:45:27.293Z,9.91
2018-11-01T09:47:55.991Z,9.95
2018-11-01T09:50:24.665Z,9.96
2018-11-01T09:52:53.329Z,9.97
2018-11-01T09:55:22.031Z,9.97
2018-11-01T09:57:50.716Z,9.97
2018-11-01T10:00:19.403Z,10.01
2018-11-01T10:02:48.117Z,10.04
2018-11-01T10:05:16.819Z,10.09
2018-11-01T10:07:45.550Z,10.12
2018-11-01T10:10:14.345Z,10.15
2018-11-01T10:12:43.026Z,10.21
2018-11-01T10:15:12.494Z,10.28
2018-11-01T10:17:41.723Z,10.37
2018-11-01T10:20:11.563Z,10.42
2018-11-01T10:22:40.464Z,10.43
2018-11-01T10:25:10.135Z,10.40
2018-11-01T10:27:38.944Z,10.41
2018-11-01T10:30:10.379Z,10.45
2018-11-01T10:32:39.037Z,10.49
2018-11-01T10:35:07.878Z,10.54
2018-11-01T10:37:36.885Z,10.60
2018-11-01T10:40:06.596Z,10.69
2018-11-01T10:42:35.256Z,10.72
2018-11-01T10:45:04.001Z,10.70
2018-11-01T10:47:32.705Z,10.67
2018-11-01T10:50:01.384Z,10.66
2018-11-01T10:52:30.083Z,10.70
2018-11-01T10:54:58.813Z,10.72
2018-11-01T10:57:27.515Z,10.75
2018-11-01T10:59:56.211Z,10.81
2018-11-01T11:02:26.434Z,10.83
2018-11-01T11:04:55.112Z,10.81
2018-11-01T11:07:23.974Z,10.83
2018-11-01T11:09:52.683Z,10.86
2018-11-01T11:12:21.471Z,10.92
2018-11-01T11:14:50.159Z,10.98
2018-11-01T11:17:18.823Z,11.05
2018-11-01T11:19:47.557Z,11.11
2018-11-01T11:22:17.067Z,11.17
2018-11-01T11:24:45.768Z,11.24
2018-11-01T11:27:14.483Z,11.26
2018-11-01T11:29:43.146Z,11.24
2018-11-01T11:32:11.824Z,11.25
2018-11-01T11:34:40.510Z,11.28
2018-11-01T11:37:09.193Z,11.29
2018-11-01T11:39:37.898Z,11.32
2018-11-01T11:42:06.744Z,11.35
2018-11-01T11:44:35.396Z,11.39
2018-11-01T11:47:04.080Z,11.30
2018-11-01T11:49:32.803Z,11.22
2018-11-01T11:52:01.534Z,11.28
2018-11-01T11:54:30.473Z,11.32
2018-11-01T11:56:59.215Z,11.39
2018-11-01T11:59:27.917Z,11.45
2018-11-01T12:01:56.620Z,11.45
2018-11-01T12:04:25.319Z,11.42
2018-11-01T12:06:54.000Z,11.47
2018-11-01T12:09:22.700Z,11.54
2018-11-01T12:11:51.385Z,11.61
2018-11-01T12:14:20.134Z,11.65
2018-11-01T12:16:48.771Z,11.70
2018-11-01T12:19:17.443Z,11.70
2018-11-01T12:21:46.157Z,11.71
2018-11-01T12:24:14.879Z,11.75
2018-11-01T12:26:43.532Z,11.79
2018-11-01T12:29:12.220Z,11.77
2018-11-01T12:31:40.895Z,11.80
2018-11-01T12:34:09.588Z,11.85
2018-11-01T12:36:38.222Z,11.93
2018-11-01T12:39:08.053Z,12.04
2018-11-01T12:41:36.826Z,12.09
2018-11-01T12:44:05.585Z,12.15
2018-11-01T12:46:34.405Z,12.32
2018-11-01T12:49:03.105Z,12.51
2018-11-01T12:51:31.796Z,12.66
2018-11-01T12:54:00.494Z,12.66
2018-11-01T12:56:29.350Z,12.68
2018-11-01T12:58:57.885Z,12.85
2018-11-01T13:01:26.557Z,12.87
2018-11-01T13:03:55.764Z,12.98
2018-11-01T13:06:24.951Z,12.85
2018-11-01T13:08:53.608Z,12.82
2018-11-01T13:11:22.284Z,12.70
2018-11-01T13:13:50.968Z,12.64
2018-11-01T13:16:19.760Z,12.49
2018-11-01T13:18:48.413Z,12.32
2018-11-01T13:21:17.120Z,12.21
2018-11-01T13:23:45.991Z,12.15
2018-11-01T13:26:14.708Z,12.09
2018-11-01T13:28:43.428Z,12.07
2018-11-01T13:31:12.113Z,12.07
2018-11-01T13:33:40.855Z,12.25
2018-11-01T13:36:09.558Z,12.24
2018-11-01T13:38:38.248Z,12.08
2018-11-01T13:41:07.476Z,11.98
2018-11-01T13:43:35.912Z,11.92
2018-11-01T13:46:04.678Z,11.90
2018-11-01T13:48:33.434Z,11.87
2018-11-01T13:51:02.103Z,11.79
2018-11-01T13:53:30.792Z,11.70
2018-11-01T13:55:59.478Z,11.70
2018-11-01T13:58:28.185Z,11.67
2018-11-01T14:00:56.838Z,11.72
2018-11-01T14:03:25.537Z,11.81
2018-11-01T14:05:54.305Z,11.85
2018-11-01T14:08:22.919Z,12.12
2018-11-01T14:10:51.605Z,12.12
2018-11-01T14:13:20.470Z,11.99
2018-11-01T14:15:49.054Z,12.01
2018-11-01T14:18:17.704Z,11.97
2018-11-01T14:20:46.593Z,11.90
2018-11-01T14:23:15.314Z,11.88
2018-11-01T14:25:44.008Z,11.91
2018-11-01T14:28:12.687Z,11.99
2018-11-01T14:30:41.387Z,12.04
2018-11-01T14:33:10.125Z,12.07
2018-11-01T14:35:38.794Z,12.03
2018-11-01T14:38:07.458Z,11.81
2018-11-01T14:40:36.136Z,11.51
2018-11-01T14:43:05.185Z,11.22
2018-11-01T14:45:33.862Z,11.00
2018-11-01T14:48:02.570Z,10.96
2018-11-01T14:50:31.346Z,11.09
2018-11-01T14:53:01.088Z,11.31
2018-11-01T14:55:30.366Z,11.55
2018-11-01T14:57:58.640Z,11.73
2018-11-01T15:00:26.274Z,11.96
2018-11-01T15:02:54.985Z,12.17
2018-11-01T15:05:23.671Z,12.34
2018-11-01T15:07:52.433Z,12.43
2018-11-01T15:10:21.127Z,12.57
2018-11-01T15:12:49.893Z,12.58
2018-11-01T15:15:18.576Z,12.34
2018-11-01T15:17:47.266Z,12.07
2018-11-01T15:20:15.995Z,11.86
2018-11-01T15:22:44.713Z,11.70
2018-11-01T15:25:13.445Z,11.55
2018-11-01T15:27:42.112Z,11.43
2018-11-01T15:30:13.872Z,11.30
2018-11-01T15:32:42.623Z,11.20
2018-11-01T15:35:11.368Z,11.11
2018-11-01T15:37:40.196Z,11.00
2018-11-01T15:40:10.316Z,10.92
2018-11-01T15:42:39.169Z,10.87
2018-11-01T15:45:08.962Z,10.81
2018-11-01T15:47:38.052Z,10.79
2018-11-01T15:50:07.534Z,10.78
2018-11-01T15:52:36.265Z,10.78
2018-11-01T15:55:06.238Z,10.85
2018-11-01T15:57:35.460Z,10.91
2018-11-01T16:00:04.320Z,10.88
2018-11-01T16:02:33.182Z,10.83
2018-11-01T16:05:01.881Z,10.79
2018-11-01T16:07:30.630Z,10.72
2018-11-01T16:09:59.357Z,10.66
2018-11-01T16:12:28.118Z,10.59
2018-11-01T16:14:56.831Z,10.54
2018-11-01T16:17:25.504Z,10.49
2018-11-01T16:19:55.016Z,10.45
2018-11-01T16:22:23.695Z,10.43
2018-11-01T16:24:52.402Z,10.41
2018-11-01T16:27:21.153Z,10.36
2018-11-01T16:29:49.841Z,10.32
2018-11-01T16:32:19.648Z,10.28
2018-11-01T16:34:48.373Z,10.22
2018-11-01T16:37:17.264Z,10.18
2018-11-01T16:39:45.905Z,10.12
2018-11-01T16:42:14.646Z,10.08
2018-11-01T16:44:43.354Z,10.03
2018-11-01T16:47:12.279Z,9.97
2018-11-01T16:49:40.940Z,9.93
2018-11-01T16:52:09.657Z,9.87
2018-11-01T16:54:38.335Z,9.82
2018-11-01T16:57:07.176Z,9.77
2018-11-01T16:59:35.879Z,9.73
2018-11-01T17:02:04.685Z,9.67
2018-11-01T17:04:33.367Z,9.62
2018-11-01T17:07:02.248Z,9.57
2018-11-01T17:09:31.595Z,9.53
2018-11-01T17:12:00.288Z,9.48
2018-11-01T17:14:28.986Z,9.44
2018-11-01T17:16:57.708Z,9.41
2018-11-01T17:19:26.391Z,9.37
2018-11-01T17:21:55.081Z,9.37
2018-11-01T17:24:23.769Z,9.36
2018-11-01T17:26:52.469Z,9.34
2018-11-01T17:29:21.171Z,9.35
2018-11-01T17:31:49.868Z,9.34
2018-11-01T17:34:18.655Z,9.34
2018-11-01T17:36:47.297Z,9.31
2018-11-01T17:39:15.991Z,9.30
2018-11-01T17:41:44.700Z,9.28
2018-11-01T17:44:13.630Z,9.27
2018-11-01T17:46:42.374Z,9.26
2018-11-01T17:49:11.064Z,9.25
2018-11-01T17:51:39.784Z,9.24
2018-11-01T17:54:12.584Z,9.24
2018-11-01T17:56:41.790Z,9.24
2018-11-01T17:59:10.766Z,9.25
2018-11-01T18:01:39.588Z,9.25
2018-11-01T18:04:08.845Z,9.24
2018-11-01T18:06:37.760Z,9.22
2018-11-01T18:09:09.809Z,9.20
2018-11-01T18:11:38.563Z,9.17
2018-11-01T18:14:07.543Z,9.15
2018-11-01T18:16:36.324Z,9.10
2018-11-01T18:19:05.040Z,9.05
2018-11-01T18:21:33.831Z,8.99
2018-11-01T18:24:02.677Z,8.94
2018-11-01T18:26:31.386Z,8.91
2018-11-01T18:29:00.241Z,8.85
2018-11-01T18:31:29.043Z,8.80
2018-11-01T18:33:57.877Z,8.76
2018-11-01T18:36:26.691Z,8.75
2018-11-01T18:38:55.397Z,8.77
2018-11-01T18:41:24.100Z,8.76
2018-11-01T18:43:52.972Z,8.74
2018-11-01T18:46:21.693Z,8.71
2018-11-01T18:48:50.396Z,8.68
2018-11-01T18:51:19.096Z,8.66
2018-11-01T18:53:47.851Z,8.65
2018-11-01T18:56:16.481Z,8.67
2018-11-01T18:58:45.278Z,8.68
2018-11-01T19:01:14.061Z,8.69
2018-11-01T19:03:42.916Z,8.70
2018-11-01T19:06:11.664Z,8.70
2018-11-01T19:08:40.328Z,8.69
2018-11-01T19:11:09.079Z,8.70
2018-11-01T19:13:37.987Z,8.70
2018-11-01T19:16:06.676Z,8.71
2018-11-01T19:18:35.304Z,8.70
2018-11-01T19:21:04.029Z,8.71
2018-11-01T19:23:32.761Z,8.72
2018-11-01T19:26:01.473Z,8.72
2018-11-01T19:28:30.191Z,8.74
2018-11-01T19:30:58.889Z,8.73
2018-11-01T19:33:27.625Z,8.73
2018-11-01T19:35:56.299Z,8.72
2018-11-01T19:38:24.996Z,8.69
2018-11-01T19:40:53.674Z,8.66
2018-11-01T19:43:22.333Z,8.63
2018-11-01T19:45:51.131Z,8.58
2018-11-01T19:48:19.915Z,8.55
2018-11-01T19:50:48.548Z,8.49
2018-11-01T19:53:17.281Z,8.47
2018-11-01T19:55:45.978Z,8.44
2018-11-01T19:58:14.674Z,8.43
2018-11-01T20:00:43.385Z,8.42
2018-11-01T20:03:12.080Z,8.41
2018-11-01T20:05:40.744Z,8.41
2018-11-01T20:08:09.439Z,8.41
2018-11-01T20:10:38.151Z,8.41
2018-11-01T20:13:06.860Z,8.38
2018-11-01T20:15:35.576Z,8.33
2018-11-01T20:18:04.272Z,8.29
2018-11-01T20:20:33.544Z,8.26
2018-11-01T20:23:02.174Z,8.21
2018-11-01T20:25:30.866Z,8.16
2018-11-01T20:27:59.545Z,8.11
2018-11-01T20:30:28.223Z,8.07
2018-11-01T20:32:56.996Z,8.03
2018-11-01T20:35:25.707Z,8.00
2018-11-01T20:37:54.390Z,7.96
2018-11-01T20:40:23.065Z,7.94
2018-11-01T20:42:51.771Z,7.91
2018-11-01T20:45:20.483Z,7.87
2018-11-01T20:47:49.220Z,7.84
2018-11-01T20:50:18.033Z,7.75
2018-11-01T20:52:46.625Z,7.66
2018-11-01T20:55:15.298Z,7.58
2018-11-01T20:57:44.051Z,7.53
2018-11-01T21:00:14.252Z,7.47
2018-11-01T21:02:43.000Z,7.41
2018-11-01T21:05:12.012Z,7.38
2018-11-01T21:07:40.616Z,7.33
2018-11-01T21:10:10.021Z,7.28
2018-11-01T21:12:39.339Z,7.23
2018-11-01T21:15:09.881Z,7.19
2018-11-01T21:17:38.593Z,7.14
2018-11-01T21:20:07.471Z,7.12
2018-11-01T21:22:36.166Z,7.08
2018-11-01T21:25:05.147Z,7.03
2018-11-01T21:27:33.872Z,6.98
2018-11-01T21:30:02.875Z,6.94
2018-11-01T21:32:31.621Z,6.92
2018-11-01T21:35:00.616Z,6.90
2018-11-01T21:37:29.338Z,6.85
2018-11-01T21:39:58.040Z,6.80
2018-11-01T21:42:26.873Z,6.77
2018-11-01T21:44:55.564Z,6.72
2018-11-01T21:47:24.391Z,6.69
2018-11-01T21:49:53.136Z,6.64
2018-11-01T21:52:21.808Z,6.60
2018-11-01T21:54:50.546Z,6.56
2018-11-01T21:57:19.325Z,6.53
2018-11-01T21:59:48.053Z,6.51
2018-11-01T22:02:16.774Z,6.50
2018-11-01T22:04:45.803Z,6.47
2018-11-01T22:07:14.565Z,6.42
2018-11-01T22:09:43.449Z,6.39
2018-11-01T22:12:12.085Z,6.37
2018-11-01T22:14:40.724Z,6.33
2018-11-01T22:17:09.398Z,6.29
2018-11-01T22:19:38.102Z,6.28
2018-11-01T22:22:06.779Z,6.27
2018-11-01T22:24:35.478Z,6.26
2018-11-01T22:27:04.204Z,6.25
2018-11-01T22:29:32.941Z,6.24
2018-11-01T22:32:01.600Z,6.24
2018-11-01T22:34:30.282Z,6.21
2018-11-01T22:36:58.989Z,6.20
2018-11-01T22:39:27.686Z,6.19
2018-11-01T22:41:56.391Z,6.15
2018-11-01T22:44:25.046Z,6.13
2018-11-01T22:46:53.730Z,6.09
2018-11-01T22:49:22.418Z,6.06
2018-11-01T22:51:51.094Z,6.07
2018-11-01T22:54:19.781Z,6.04
2018-11-01T22:56:48.621Z,6.04
2018-11-01T22:59:17.288Z,6.01
2018-11-01T23:01:45.989Z,5.99
2018-11-01T23:04:14.643Z,5.98
2018-11-01T23:06:43.323Z,5.97
2018-11-01T23:09:12.056Z,5.98
2018-11-01T23:11:41.026Z,5.97
2018-11-01T23:14:09.788Z,5.97
2018-11-01T23:16:38.460Z,5.95
2018-11-01T23:19:07.125Z,5.94
2018-11-01T23:21:35.802Z,5.90
2018-11-01T23:24:04.630Z,5.88
2018-11-01T23:26:33.298Z,5.83
2018-11-01T23:29:01.981Z,5.82
2018-11-01T23:31:30.652Z,5.81
2018-11-01T23:33:59.320Z,5.78
2018-11-01T23:36:27.057Z,5.76
2018-11-01T23:39:00.936Z,5.75
2018-11-01T23:41:34.729Z,5.75
2018-11-01T23:44:08.624Z,5.69
2018-11-01T23:46:42.481Z,5.65
2018-11-01T23:49:13.860Z,5.63
2018-11-01T23:51:43.090Z,5.63
2018-11-01T23:54:11.760Z,5.60
2018-11-01T23:56:40.419Z,5.60
2018-11-01T23:59:09.138Z,5.59
